Flight Track Log - Related Links

Times and Time Zones

All times are in EDT time to prevent confusion due to time zone crossing. See the ASQ5941 flight status page for this flight to view local times or setup timezone preferences in your user account.


Time Position Orientation Groundspeed Altitude Reporting Facility
EDT Latitude Longitude Course Direction KTS MPH feet Rate Location/Type
Mon 05:52:51 PM 41.2697 -75.7894 216° Southwest 200 230 4,100  Level New York Center
Mon 05:53:52 PM 41.2725 -75.8642 273° West 194 223 6,600 1,918 Climbing New York Center
Mon 05:54:00 PM 41.3860 -75.8868 315° West  Level FlightAware Approximate
Mon 05:54:53 PM 41.3444 -75.8889 346° North 177 204 8,000  Level New York Center
Mon 05:55:00 PM 41.4462 -75.9756 304° West  Level FlightAware Approximate
Mon 05:55:51 PM 41.4206 -75.9111 348° North 222 255 8,800  Level New York Center
Mon 05:56:00 PM 41.5043 -76.0668 315° West  Level FlightAware Approximate
Mon 05:56:51 PM 41.5031 -75.9314 350° North 256 295 10,400  Level New York Center
Mon 05:57:00 PM 41.5649 -76.1557 312° West  Level FlightAware Approximate
Mon 05:57:52 PM 41.5967 -75.9775 340° North 317 365 11,900  Level New York Center
Mon 05:58:52 PM 41.6442 -76.0839 301° West 329 379 13,700 1,835 Climbing New York Center
Mon 05:59:53 PM 41.6747 -76.1892 291° West 334 384 15,600 1,866 Climbing New York Center
Mon 06:00:51 PM 41.7089 -76.3086 291° West 339 390 17,400 1,613 Climbing New York Center
Mon 06:01:52 PM 41.7389 -76.4222 290° West 339 390 18,800 1,636 Climbing New York Center
Mon 06:02:52 PM 41.7750 -76.5394 292° West 339 390 20,700 1,721 Climbing New York Center
Mon 06:03:54 PM 41.8047 -76.6561 289° West 334 384 22,300 1,361 Climbing New York Center
Mon 06:04:51 PM 41.8436 -76.7903 291° West 347 399 23,400 1,119 Climbing New York Center
Mon 06:05:52 PM 41.8769 -76.9158 290° West 353 406 24,500 1,068 Climbing New York Center
Mon 06:06:49 PM 41.9139 -77.0447 291° West 361 415 25,500 1,077 Climbing Cleveland Center
Mon 06:07:49 PM 41.9492 -77.1797 289° West 372 428 26,600 1,050 Climbing Cleveland Center
Mon 06:08:49 PM 41.9864 -77.3117 291° West 377 434 27,600 1,050 Climbing Cleveland Center
Mon 06:09:49 PM 42.0214 -77.4469 289° West 382 440 28,700 1,150 Climbing Cleveland Center
Mon 06:10:49 PM 42.0564 -77.5794 290° West 382 440 29,900 1,150 Climbing Cleveland Center
Mon 06:11:49 PM 42.0908 -77.7094 290° West 382 440 31,000 1,150 Climbing Cleveland Center
Mon 06:12:49 PM 42.1275 -77.8450 290° West 382 440 32,200 1,150 Climbing Cleveland Center
Mon 06:13:49 PM 42.1619 -77.9781 289° West 382 440 33,300 1,150 Climbing Cleveland Center
Mon 06:14:49 PM 42.1981 -78.1111 290° West 382 440 34,500 1,150 Climbing Cleveland Center
Mon 06:15:49 PM 42.2322 -78.2444 289° West 382 440 35,600 750 Climbing Cleveland Center
Mon 06:16:49 PM 42.2594 -78.3500 289° West 382 440 36,000 200 Climbing Cleveland Center
Mon 06:17:49 PM 42.2978 -78.5031 289° West 382 440 36,000  Level Cleveland Center
Mon 06:18:49 PM 42.3336 -78.6508 288° West 394 453 36,000  Level Cleveland Center
Mon 06:19:49 PM 42.3714 -78.7958 289° West 405 466 36,000  Level Cleveland Center
Mon 06:20:49 PM 42.4047 -78.9353 288° West 405 466 36,000  Level Cleveland Center
Mon 06:21:49 PM 42.4419 -79.0750 290° West 400 460 36,000  Level Cleveland Center
Mon 06:22:49 PM 42.4792 -79.2206 289° West 405 466 36,000  Level Cleveland Center
Mon 06:23:49 PM 42.4997 -79.3639 281° West 395 455 36,000  Level Cleveland Center
Mon 06:24:49 PM 42.5053 -79.5103 273° West 390 449 36,000  Level Cleveland Center
Mon 06:25:49 PM 42.5108 -79.6594 273° West 390 449 36,000  Level Cleveland Center
Mon 06:26:49 PM 42.5203 -79.8086 275° West 390 449 36,000  Level Cleveland Center
Mon 06:27:49 PM 42.5253 -79.9633 273° West 400 460 36,000  Level Cleveland Center
Mon 06:28:49 PM 42.5300 -80.1183 272° West 413 475 36,000  Level Cleveland Center
Mon 06:29:49 PM 42.5369 -80.2733 274° West 418 481 36,000  Level Cleveland Center
Mon 06:30:49 PM 42.5414 -80.4367 272° West 418 481 36,000  Level Cleveland Center
Mon 06:31:49 PM 42.5497 -80.5917 274° West 418 481 36,000  Level Cleveland Center
Mon 06:32:49 PM 42.5539 -80.7411 272° West 413 475 36,000  Level Cleveland Center
Mon 06:33:49 PM 42.5619 -80.8961 274° West 413 475 36,000  Level Cleveland Center
Mon 06:34:49 PM 42.5656 -81.0428 272° West 402 463 36,000  Level Cleveland Center
Mon 06:35:49 PM 42.5711 -81.1922 273° West 402 463 36,000  Level Cleveland Center
Mon 06:36:49 PM 42.5764 -81.3444 273° West 402 463 36,000  Level Cleveland Center
Mon 06:37:49 PM 42.5900 -81.4942 277° West 407 468 36,000  Level Cleveland Center
Mon 06:38:49 PM 42.6178 -81.6442 284° West 407 468 36,000  Level Cleveland Center
Mon 06:39:49 PM 42.6414 -81.7828 283° West 415 478 36,000  Level Cleveland Center
Mon 06:40:49 PM 42.6669 -81.9442 282° West 410 472 36,000  Level Cleveland Center
Mon 06:41:49 PM 42.6942 -82.0944 284° West 410 472 36,000  Level Cleveland Center
Mon 06:42:49 PM 42.7192 -82.2506 282° West 410 472 36,000  Level Cleveland Center
Mon 06:43:49 PM 42.7461 -82.3983 284° West 410 472 36,000  Level Cleveland Center
Mon 06:44:49 PM 42.7686 -82.5403 282° West 417 480 36,000  Level Cleveland Center
Mon 06:45:49 PM 42.7953 -82.6911 284° West 417 480 36,000  Level Cleveland Center
Mon 06:46:49 PM 42.8214 -82.8450 283° West 417 480 36,000  Level Cleveland Center
Mon 06:47:49 PM 42.8456 -82.9958 282° West 412 474 36,000 -450 Level Cleveland Center
Mon 06:48:49 PM 42.8694 -83.1442 282° West 412 474 35,100 -950 Descending Cleveland Center
Mon 06:49:49 PM 42.8931 -83.2897 283° West 407 468 34,100 -550 Descending Cleveland Center
Mon 06:50:49 PM 42.9147 -83.4294 282° West 396 456 34,000 -50 Descending Cleveland Center
Mon 06:51:49 PM 42.9383 -83.5753 283° West 390 449 34,000 -250 Level Cleveland Center
Mon 06:52:49 PM 42.9594 -83.7239 281° West 395 455 33,500 -750 Descending Cleveland Center
Mon 06:53:49 PM 42.9531 -83.8767 267° West 401 461 32,500 -1,000 Descending Cleveland Center
Mon 06:54:49 PM 42.9381 -84.0292 262° West 401 461 31,500 -1,000 Descending Cleveland Center
Mon 06:55:49 PM 42.9231 -84.1814 262° West 407 468 30,500 -1,034 Descending Cleveland Center
Mon 06:57:14 PM 42.9025 -84.3986 263° West 410 472 29,000 -1,020 Descending Chicago Center
Mon 06:58:16 PM 42.8853 -84.5572 262° West 419 482 28,000 -484 Descending Chicago Center
Mon 06:59:18 PM 42.8706 -84.7106 263° West 413 475 28,000  Level Chicago Center
Mon 07:00:20 PM 42.8553 -84.8633 262° West 409 471 28,000  Level Chicago Center
Mon 07:01:21 PM 42.8350 -85.0497 262° West 413 475 28,000  Level Chicago Center
Mon 07:02:23 PM 42.8181 -85.2083 262° West 421 484 28,000  Level Chicago Center
Mon 07:03:25 PM 42.8008 -85.3664 262° West 422 486 28,000  Level Chicago Center
Mon 07:04:27 PM 42.7814 -85.5258 261° West 427 491 28,000 -145 Level Chicago Center
Mon 07:05:29 PM 42.7528 -85.6850 256° West 428 493 27,700 -871 Descending Chicago Center
Mon 07:06:31 PM 42.7231 -85.8464 256° West 436 502 26,200 -2,000 Descending Chicago Center
Mon 07:07:32 PM 42.6944 -86.0042 256° West 430 495 23,600 -2,537 Descending Chicago Center
Mon 07:08:34 PM 42.6672 -86.1539 256° West 411 473 21,000 -1,887 Descending Chicago Center
Mon 07:09:36 PM 42.6406 -86.2964 256° West 392 451 19,700 -1,258 Descending Chicago Center
Mon 07:10:38 PM 42.6097 -86.4619 256° West 379 436 18,400 -1,210 Descending Chicago Center
Mon 07:11:40 PM 42.5850 -86.5900 255° West 355 409 17,200 -1,415 Descending Chicago Center
Mon 07:12:41 PM 42.5614 -86.7194 256° West 354 407 15,500 -1,707 Descending Chicago Center
Mon 07:13:43 PM 42.5300 -86.8394 250° West 341 392 13,700 -1,742 Descending Chicago Center
Mon 07:14:45 PM 42.4997 -86.9511 250° West 320 368 11,900 -1,645 Descending Chicago Center
Mon 07:15:47 PM 42.4692 -87.0586 249° West 308 354 10,300 -1,258 Descending Chicago Center
Mon 07:16:49 PM 42.4431 -87.1536 250° West 275 316 9,300 -629 Descending Chicago Center
Mon 07:17:51 PM 42.4122 -87.2686 250° West 272 313 9,000 -195 Descending Chicago Center
Mon 07:18:52 PM 42.3861 -87.3589 249° West 263 303 8,900 -537 Descending Chicago Center
Mon 07:19:54 PM 42.3628 -87.4378 248° West 222 255 7,900 -968 Descending Chicago Center
Mon 07:20:56 PM 42.3303 -87.5053 237° Southwest 219 252 6,900 -968 Descending Chicago Center
Mon 07:21:58 PM 42.2925 -87.5664 230° Southwest 216 249 5,900 -919 Descending Chicago Center
Mon 07:23:00 PM 42.2478 -87.6194 221° Southwest 217 250 5,000 -439 Descending Chicago Center
Mon 07:24:01 PM 42.2022 -87.6703 220° Southwest 215 247 5,000 -146 Level Chicago Center
Mon 07:25:03 PM 42.1503 -87.7289 220° Southwest 206 237 4,700 -594 Descending Chicago Center
Mon 07:25:42 PM 42.1167 -87.7500 205° Southwest 177 204 4,000 -1,077 Descending Chicago TRACON

Login

Don't have an account? Register now (free) for customized features, flight alerts, and more!